sensor_id;sensor_type;location;lat;lon;timestamp;P1;durP1;ratioP1;P2;durP2;ratioP2
42030;SDS011;27709;52.036;5.906;2023-08-17T00:01:32;2.45;;;0.80;;
42030;SDS011;27709;52.036;5.906;2023-08-17T00:03:58;3.42;;;1.00;;
42030;SDS011;27709;52.036;5.906;2023-08-17T00:06:23;2.55;;;1.15;;
42030;SDS011;27709;52.036;5.906;2023-08-17T00:08:49;4.57;;;1.15;;
42030;SDS011;27709;52.036;5.906;2023-08-17T00:11:14;7.20;;;1.38;;
42030;SDS011;27709;52.036;5.906;2023-08-17T00:13:40;4.53;;;1.17;;
42030;SDS011;27709;52.036;5.906;2023-08-17T00:16:06;3.25;;;1.30;;
42030;SDS011;27709;52.036;5.906;2023-08-17T00:18:32;4.00;;;1.50;;
42030;SDS011;27709;52.036;5.906;2023-08-17T00:20:57;3.88;;;1.40;;
42030;SDS011;27709;52.036;5.906;2023-08-17T00:23:23;3.88;;;1.02;;
42030;SDS011;27709;52.036;5.906;2023-08-17T00:25:49;6.65;;;1.58;;
42030;SDS011;27709;52.036;5.906;2023-08-17T00:28:15;4.07;;;1.30;;
42030;SDS011;27709;52.036;5.906;2023-08-17T00:30:41;3.00;;;1.25;;
42030;SDS011;27709;52.036;5.906;2023-08-17T00:33:06;3.42;;;1.10;;
42030;SDS011;27709;52.036;5.906;2023-08-17T00:35:32;5.43;;;1.50;;
42030;SDS011;27709;52.036;5.906;2023-08-17T00:37:58;3.15;;;1.25;;
42030;SDS011;27709;52.036;5.906;2023-08-17T00:40:24;3.33;;;0.93;;
42030;SDS011;27709;52.036;5.906;2023-08-17T00:42:49;3.22;;;1.02;;
42030;SDS011;27709;52.036;5.906;2023-08-17T00:45:15;4.03;;;1.23;;
42030;SDS011;27709;52.036;5.906;2023-08-17T00:47:41;3.83;;;1.33;;
42030;SDS011;27709;52.036;5.906;2023-08-17T00:50:07;2.60;;;1.13;;
42030;SDS011;27709;52.036;5.906;2023-08-17T00:52:33;3.58;;;1.20;;
42030;SDS011;27709;52.036;5.906;2023-08-17T00:54:59;4.90;;;1.45;;
42030;SDS011;27709;52.036;5.906;2023-08-17T00:57:26;4.05;;;1.20;;
42030;SDS011;27709;52.036;5.906;2023-08-17T00:59:52;2.22;;;1.05;;
42030;SDS011;27709;52.036;5.906;2023-08-17T01:02:18;4.60;;;1.30;;
42030;SDS011;27709;52.036;5.906;2023-08-17T01:04:43;3.05;;;1.23;;
42030;SDS011;27709;52.036;5.906;2023-08-17T01:07:09;3.83;;;1.20;;
42030;SDS011;27709;52.036;5.906;2023-08-17T01:09:35;5.88;;;1.20;;
42030;SDS011;27709;52.036;5.906;2023-08-17T01:12:17;2.67;;;1.10;;
42030;SDS011;27709;52.036;5.906;2023-08-17T01:17:41;4.25;;;1.40;;
42030;SDS011;27709;52.036;5.906;2023-08-17T01:20:17;3.25;;;1.23;;
42030;SDS011;27709;52.036;5.906;2023-08-17T01:22:45;3.00;;;1.10;;
42030;SDS011;27709;52.036;5.906;2023-08-17T01:25:13;3.67;;;1.40;;
42030;SDS011;27709;52.036;5.906;2023-08-17T01:27:45;4.13;;;1.20;;
42030;SDS011;27709;52.036;5.906;2023-08-17T01:30:11;2.95;;;1.33;;
42030;SDS011;27709;52.036;5.906;2023-08-17T01:32:58;4.03;;;1.30;;
42030;SDS011;27709;52.036;5.906;2023-08-17T01:35:34;3.55;;;1.40;;
42030;SDS011;27709;52.036;5.906;2023-08-17T01:38:07;3.67;;;1.33;;
42030;SDS011;27709;52.036;5.906;2023-08-17T01:40:36;3.75;;;1.23;;
42030;SDS011;27709;52.036;5.906;2023-08-17T01:43:02;4.13;;;1.30;;
42030;SDS011;27709;52.036;5.906;2023-08-17T01:45:28;3.55;;;1.40;;
42030;SDS011;27709;52.036;5.906;2023-08-17T01:47:55;2.35;;;1.10;;
42030;SDS011;27709;52.036;5.906;2023-08-17T01:50:20;6.88;;;1.63;;
42030;SDS011;27709;52.036;5.906;2023-08-17T01:52:46;5.97;;;1.60;;
42030;SDS011;27709;52.036;5.906;2023-08-17T01:55:12;4.57;;;1.40;;
42030;SDS011;27709;52.036;5.906;2023-08-17T01:57:37;4.53;;;1.38;;
42030;SDS011;27709;52.036;5.906;2023-08-17T02:00:06;3.58;;;1.50;;
42030;SDS011;27709;52.036;5.906;2023-08-17T02:02:35;4.37;;;1.57;;
42030;SDS011;27709;52.036;5.906;2023-08-17T02:05:01;4.65;;;1.35;;
42030;SDS011;27709;52.036;5.906;2023-08-17T02:07:26;3.72;;;1.30;;
42030;SDS011;27709;52.036;5.906;2023-08-17T02:09:52;4.97;;;1.30;;
42030;SDS011;27709;52.036;5.906;2023-08-17T02:12:18;2.30;;;1.23;;
42030;SDS011;27709;52.036;5.906;2023-08-17T02:14:43;5.68;;;1.40;;
42030;SDS011;27709;52.036;5.906;2023-08-17T02:17:09;2.85;;;1.40;;
42030;SDS011;27709;52.036;5.906;2023-08-17T02:19:35;3.47;;;1.73;;
42030;SDS011;27709;52.036;5.906;2023-08-17T02:22:01;2.42;;;1.40;;
42030;SDS011;27709;52.036;5.906;2023-08-17T02:24:26;4.95;;;1.40;;
42030;SDS011;27709;52.036;5.906;2023-08-17T02:26:52;4.50;;;1.55;;
42030;SDS011;27709;52.036;5.906;2023-08-17T02:29:18;3.28;;;1.23;;
42030;SDS011;27709;52.036;5.906;2023-08-17T02:31:43;3.30;;;1.23;;
42030;SDS011;27709;52.036;5.906;2023-08-17T02:34:08;3.95;;;1.20;;
42030;SDS011;27709;52.036;5.906;2023-08-17T02:36:35;3.25;;;1.38;;
42030;SDS011;27709;52.036;5.906;2023-08-17T02:39:00;5.22;;;1.08;;
42030;SDS011;27709;52.036;5.906;2023-08-17T02:41:28;4.50;;;1.10;;
42030;SDS011;27709;52.036;5.906;2023-08-17T02:43:55;2.63;;;1.30;;
42030;SDS011;27709;52.036;5.906;2023-08-17T02:46:21;5.10;;;1.35;;
42030;SDS011;27709;52.036;5.906;2023-08-17T02:48:46;3.30;;;1.10;;
42030;SDS011;27709;52.036;5.906;2023-08-17T02:51:12;3.00;;;0.90;;
42030;SDS011;27709;52.036;5.906;2023-08-17T02:53:38;3.67;;;1.17;;
42030;SDS011;27709;52.036;5.906;2023-08-17T02:56:04;3.53;;;1.38;;
42030;SDS011;27709;52.036;5.906;2023-08-17T02:58:29;2.40;;;0.93;;
42030;SDS011;27709;52.036;5.906;2023-08-17T03:00:55;4.20;;;1.42;;
42030;SDS011;27709;52.036;5.906;2023-08-17T03:03:21;3.30;;;1.20;;
42030;SDS011;27709;52.036;5.906;2023-08-17T03:05:46;5.45;;;1.38;;
42030;SDS011;27709;52.036;5.906;2023-08-17T03:08:12;4.95;;;1.20;;
42030;SDS011;27709;52.036;5.906;2023-08-17T03:10:37;3.75;;;1.27;;
42030;SDS011;27709;52.036;5.906;2023-08-17T03:13:03;3.70;;;1.17;;
42030;SDS011;27709;52.036;5.906;2023-08-17T03:15:29;4.28;;;1.10;;
42030;SDS011;27709;52.036;5.906;2023-08-17T03:17:54;5.05;;;1.30;;
42030;SDS011;27709;52.036;5.906;2023-08-17T03:20:20;3.33;;;1.42;;
42030;SDS011;27709;52.036;5.906;2023-08-17T03:22:45;4.07;;;1.30;;
42030;SDS011;27709;52.036;5.906;2023-08-17T03:25:11;3.00;;;1.30;;
42030;SDS011;27709;52.036;5.906;2023-08-17T03:27:36;5.38;;;1.23;;
42030;SDS011;27709;52.036;5.906;2023-08-17T03:30:03;5.68;;;1.40;;
42030;SDS011;27709;52.036;5.906;2023-08-17T03:32:29;5.75;;;1.45;;
42030;SDS011;27709;52.036;5.906;2023-08-17T03:34:55;3.88;;;1.13;;
42030;SDS011;27709;52.036;5.906;2023-08-17T03:37:20;4.45;;;1.70;;
42030;SDS011;27709;52.036;5.906;2023-08-17T03:39:46;4.00;;;1.55;;
42030;SDS011;27709;52.036;5.906;2023-08-17T03:42:11;3.95;;;1.30;;
42030;SDS011;27709;52.036;5.906;2023-08-17T03:44:37;4.32;;;1.30;;
42030;SDS011;27709;52.036;5.906;2023-08-17T03:47:02;2.38;;;0.98;;
42030;SDS011;27709;52.036;5.906;2023-08-17T03:49:28;3.75;;;1.15;;
42030;SDS011;27709;52.036;5.906;2023-08-17T03:51:53;3.03;;;1.10;;
42030;SDS011;27709;52.036;5.906;2023-08-17T03:54:19;4.00;;;1.30;;
42030;SDS011;27709;52.036;5.906;2023-08-17T03:56:45;3.35;;;1.45;;
42030;SDS011;27709;52.036;5.906;2023-08-17T03:59:10;3.95;;;1.15;;
42030;SDS011;27709;52.036;5.906;2023-08-17T04:01:36;5.32;;;1.17;;
42030;SDS011;27709;52.036;5.906;2023-08-17T04:04:01;3.92;;;1.17;;
42030;SDS011;27709;52.036;5.906;2023-08-17T04:06:27;4.15;;;1.55;;
42030;SDS011;27709;52.036;5.906;2023-08-17T04:08:52;2.55;;;1.15;;
42030;SDS011;27709;52.036;5.906;2023-08-17T04:11:18;5.63;;;1.55;;
42030;SDS011;27709;52.036;5.906;2023-08-17T04:13:43;3.63;;;1.38;;
42030;SDS011;27709;52.036;5.906;2023-08-17T04:16:09;3.65;;;1.25;;
42030;SDS011;27709;52.036;5.906;2023-08-17T04:18:35;3.88;;;1.25;;
42030;SDS011;27709;52.036;5.906;2023-08-17T04:21:00;7.13;;;1.50;;
42030;SDS011;27709;52.036;5.906;2023-08-17T04:23:26;4.68;;;1.30;;
42030;SDS011;27709;52.036;5.906;2023-08-17T04:25:51;4.85;;;1.10;;
42030;SDS011;27709;52.036;5.906;2023-08-17T04:28:19;2.78;;;1.10;;
42030;SDS011;27709;52.036;5.906;2023-08-17T04:30:47;5.10;;;1.38;;
42030;SDS011;27709;52.036;5.906;2023-08-17T04:33:17;4.82;;;1.10;;
42030;SDS011;27709;52.036;5.906;2023-08-17T04:35:46;4.10;;;1.35;;
42030;SDS011;27709;52.036;5.906;2023-08-17T04:38:19;3.25;;;1.33;;
42030;SDS011;27709;52.036;5.906;2023-08-17T04:40:45;2.80;;;1.15;;
42030;SDS011;27709;52.036;5.906;2023-08-17T04:43:11;4.28;;;1.40;;
42030;SDS011;27709;52.036;5.906;2023-08-17T04:45:36;3.88;;;1.17;;
42030;SDS011;27709;52.036;5.906;2023-08-17T04:48:02;4.25;;;1.70;;
42030;SDS011;27709;52.036;5.906;2023-08-17T04:50:27;5.30;;;1.73;;
42030;SDS011;27709;52.036;5.906;2023-08-17T04:52:53;4.95;;;1.45;;
42030;SDS011;27709;52.036;5.906;2023-08-17T04:55:19;2.47;;;1.20;;
42030;SDS011;27709;52.036;5.906;2023-08-17T04:57:44;2.28;;;1.13;;
42030;SDS011;27709;52.036;5.906;2023-08-17T05:00:10;4.25;;;1.40;;
42030;SDS011;27709;52.036;5.906;2023-08-17T05:02:36;3.08;;;1.20;;
42030;SDS011;27709;52.036;5.906;2023-08-17T05:05:03;2.15;;;1.00;;
42030;SDS011;27709;52.036;5.906;2023-08-17T05:07:32;4.10;;;1.25;;
42030;SDS011;27709;52.036;5.906;2023-08-17T05:09:58;3.90;;;1.15;;
42030;SDS011;27709;52.036;5.906;2023-08-17T05:12:23;3.10;;;1.05;;
42030;SDS011;27709;52.036;5.906;2023-08-17T05:14:49;3.45;;;1.20;;
42030;SDS011;27709;52.036;5.906;2023-08-17T05:17:15;3.80;;;0.95;;
42030;SDS011;27709;52.036;5.906;2023-08-17T05:19:40;4.40;;;1.00;;
42030;SDS011;27709;52.036;5.906;2023-08-17T05:22:09;3.85;;;1.20;;
42030;SDS011;27709;52.036;5.906;2023-08-17T05:24:36;3.15;;;1.10;;
42030;SDS011;27709;52.036;5.906;2023-08-17T05:27:02;2.80;;;1.23;;
42030;SDS011;27709;52.036;5.906;2023-08-17T05:29:27;3.90;;;1.38;;
42030;SDS011;27709;52.036;5.906;2023-08-17T05:31:53;4.43;;;1.00;;
42030;SDS011;27709;52.036;5.906;2023-08-17T05:34:18;4.60;;;1.30;;
42030;SDS011;27709;52.036;5.906;2023-08-17T05:36:44;3.15;;;1.00;;
42030;SDS011;27709;52.036;5.906;2023-08-17T05:39:09;3.45;;;1.02;;
42030;SDS011;27709;52.036;5.906;2023-08-17T05:41:35;4.47;;;1.05;;
42030;SDS011;27709;52.036;5.906;2023-08-17T05:44:01;3.65;;;0.98;;
42030;SDS011;27709;52.036;5.906;2023-08-17T05:46:26;4.03;;;1.20;;
42030;SDS011;27709;52.036;5.906;2023-08-17T05:48:52;4.57;;;1.10;;
42030;SDS011;27709;52.036;5.906;2023-08-17T05:51:17;3.30;;;1.08;;
42030;SDS011;27709;52.036;5.906;2023-08-17T05:53:43;5.53;;;1.00;;
42030;SDS011;27709;52.036;5.906;2023-08-17T05:56:08;2.42;;;0.88;;
42030;SDS011;27709;52.036;5.906;2023-08-17T05:58:34;2.78;;;0.98;;
42030;SDS011;27709;52.036;5.906;2023-08-17T06:01:07;2.10;;;0.80;;
42030;SDS011;27709;52.036;5.906;2023-08-17T06:03:34;3.13;;;0.90;;
42030;SDS011;27709;52.036;5.906;2023-08-17T06:06:00;4.05;;;1.20;;
42030;SDS011;27709;52.036;5.906;2023-08-17T06:08:26;3.35;;;1.05;;
42030;SDS011;27709;52.036;5.906;2023-08-17T06:10:52;3.25;;;1.00;;
42030;SDS011;27709;52.036;5.906;2023-08-17T06:13:17;3.50;;;1.00;;
42030;SDS011;27709;52.036;5.906;2023-08-17T06:15:43;5.40;;;1.30;;
42030;SDS011;27709;52.036;5.906;2023-08-17T06:18:10;3.28;;;0.90;;
42030;SDS011;27709;52.036;5.906;2023-08-17T06:20:35;2.72;;;0.80;;
42030;SDS011;27709;52.036;5.906;2023-08-17T06:23:01;3.60;;;1.10;;
42030;SDS011;27709;52.036;5.906;2023-08-17T06:25:26;2.67;;;1.10;;
42030;SDS011;27709;52.036;5.906;2023-08-17T06:27:52;4.72;;;1.10;;
42030;SDS011;27709;52.036;5.906;2023-08-17T06:30:17;3.97;;;1.20;;
42030;SDS011;27709;52.036;5.906;2023-08-17T06:32:43;3.95;;;1.10;;
42030;SDS011;27709;52.036;5.906;2023-08-17T06:35:09;4.50;;;1.42;;
42030;SDS011;27709;52.036;5.906;2023-08-17T06:37:34;4.28;;;1.10;;
42030;SDS011;27709;52.036;5.906;2023-08-17T06:40:01;3.53;;;1.23;;
42030;SDS011;27709;52.036;5.906;2023-08-17T06:42:31;2.90;;;1.20;;
42030;SDS011;27709;52.036;5.906;2023-08-17T06:44:57;3.55;;;1.20;;
42030;SDS011;27709;52.036;5.906;2023-08-17T06:47:22;2.17;;;1.10;;
42030;SDS011;27709;52.036;5.906;2023-08-17T06:49:48;3.80;;;1.00;;
42030;SDS011;27709;52.036;5.906;2023-08-17T06:52:13;3.85;;;0.95;;
42030;SDS011;27709;52.036;5.906;2023-08-17T06:54:40;4.85;;;1.27;;
42030;SDS011;27709;52.036;5.906;2023-08-17T06:57:06;2.67;;;1.10;;
42030;SDS011;27709;52.036;5.906;2023-08-17T06:59:31;2.95;;;0.98;;
42030;SDS011;27709;52.036;5.906;2023-08-17T07:01:58;5.22;;;1.15;;
42030;SDS011;27709;52.036;5.906;2023-08-17T07:04:24;5.20;;;1.30;;
42030;SDS011;27709;52.036;5.906;2023-08-17T07:06:50;2.65;;;0.95;;
42030;SDS011;27709;52.036;5.906;2023-08-17T07:09:15;4.30;;;1.20;;
42030;SDS011;27709;52.036;5.906;2023-08-17T07:11:41;3.65;;;1.20;;
42030;SDS011;27709;52.036;5.906;2023-08-17T07:14:06;5.68;;;1.23;;
42030;SDS011;27709;52.036;5.906;2023-08-17T07:16:32;4.20;;;1.27;;
42030;SDS011;27709;52.036;5.906;2023-08-17T07:18:58;4.15;;;1.20;;
42030;SDS011;27709;52.036;5.906;2023-08-17T07:21:23;4.43;;;1.25;;
42030;SDS011;27709;52.036;5.906;2023-08-17T07:23:50;6.60;;;1.70;;
42030;SDS011;27709;52.036;5.906;2023-08-17T07:26:16;5.90;;;1.30;;
42030;SDS011;27709;52.036;5.906;2023-08-17T07:28:45;5.20;;;1.48;;
42030;SDS011;27709;52.036;5.906;2023-08-17T07:31:12;3.33;;;1.05;;
42030;SDS011;27709;52.036;5.906;2023-08-17T07:33:38;5.50;;;1.30;;
42030;SDS011;27709;52.036;5.906;2023-08-17T07:36:04;5.20;;;1.30;;
42030;SDS011;27709;52.036;5.906;2023-08-17T07:38:30;3.85;;;1.40;;
42030;SDS011;27709;52.036;5.906;2023-08-17T07:40:55;6.50;;;1.30;;
42030;SDS011;27709;52.036;5.906;2023-08-17T07:43:21;4.85;;;1.40;;
42030;SDS011;27709;52.036;5.906;2023-08-17T07:45:52;2.85;;;1.10;;
42030;SDS011;27709;52.036;5.906;2023-08-17T07:48:19;3.90;;;1.40;;
42030;SDS011;27709;52.036;5.906;2023-08-17T07:50:47;4.20;;;1.33;;
42030;SDS011;27709;52.036;5.906;2023-08-17T07:53:14;3.72;;;1.50;;
42030;SDS011;27709;52.036;5.906;2023-08-17T07:55:39;4.60;;;1.38;;
42030;SDS011;27709;52.036;5.906;2023-08-17T07:58:05;4.53;;;1.55;;
42030;SDS011;27709;52.036;5.906;2023-08-17T08:00:31;4.28;;;1.38;;
42030;SDS011;27709;52.036;5.906;2023-08-17T08:02:57;3.83;;;1.48;;
42030;SDS011;27709;52.036;5.906;2023-08-17T08:05:22;4.53;;;1.48;;
42030;SDS011;27709;52.036;5.906;2023-08-17T08:07:48;5.03;;;1.50;;
42030;SDS011;27709;52.036;5.906;2023-08-17T08:10:13;8.77;;;1.60;;
42030;SDS011;27709;52.036;5.906;2023-08-17T08:12:39;7.90;;;1.65;;
42030;SDS011;27709;52.036;5.906;2023-08-17T08:15:05;3.58;;;1.30;;
42030;SDS011;27709;52.036;5.906;2023-08-17T08:17:31;4.57;;;1.60;;
42030;SDS011;27709;52.036;5.906;2023-08-17T08:19:56;4.05;;;1.60;;
42030;SDS011;27709;52.036;5.906;2023-08-17T08:22:23;5.15;;;2.10;;
42030;SDS011;27709;52.036;5.906;2023-08-17T08:24:48;3.88;;;1.60;;
42030;SDS011;27709;52.036;5.906;2023-08-17T08:27:14;5.18;;;1.52;;
42030;SDS011;27709;52.036;5.906;2023-08-17T08:29:40;4.20;;;1.50;;
42030;SDS011;27709;52.036;5.906;2023-08-17T08:32:06;4.18;;;1.55;;
42030;SDS011;27709;52.036;5.906;2023-08-17T08:34:31;4.95;;;1.40;;
42030;SDS011;27709;52.036;5.906;2023-08-17T08:36:57;6.07;;;1.92;;
42030;SDS011;27709;52.036;5.906;2023-08-17T08:39:24;4.97;;;1.70;;
42030;SDS011;27709;52.036;5.906;2023-08-17T08:41:53;3.90;;;1.58;;
42030;SDS011;27709;52.036;5.906;2023-08-17T08:44:19;3.47;;;1.50;;
42030;SDS011;27709;52.036;5.906;2023-08-17T08:46:45;7.65;;;2.17;;
42030;SDS011;27709;52.036;5.906;2023-08-17T08:49:11;3.85;;;1.60;;
42030;SDS011;27709;52.036;5.906;2023-08-17T08:51:44;6.13;;;2.10;;
42030;SDS011;27709;52.036;5.906;2023-08-17T08:54:13;4.18;;;1.70;;
42030;SDS011;27709;52.036;5.906;2023-08-17T08:56:43;4.90;;;2.20;;
42030;SDS011;27709;52.036;5.906;2023-08-17T08:59:11;5.50;;;2.22;;
42030;SDS011;27709;52.036;5.906;2023-08-17T09:01:37;6.20;;;2.25;;
42030;SDS011;27709;52.036;5.906;2023-08-17T09:04:03;6.82;;;1.85;;
42030;SDS011;27709;52.036;5.906;2023-08-17T09:06:30;8.45;;;2.75;;
42030;SDS011;27709;52.036;5.906;2023-08-17T09:08:57;8.75;;;2.80;;
42030;SDS011;27709;52.036;5.906;2023-08-17T09:11:22;8.63;;;2.83;;
42030;SDS011;27709;52.036;5.906;2023-08-17T09:13:48;6.88;;;2.70;;
42030;SDS011;27709;52.036;5.906;2023-08-17T09:16:14;5.50;;;2.58;;
42030;SDS011;27709;52.036;5.906;2023-08-17T09:18:40;5.05;;;2.17;;
42030;SDS011;27709;52.036;5.906;2023-08-17T09:21:05;6.30;;;1.98;;
42030;SDS011;27709;52.036;5.906;2023-08-17T09:23:31;7.40;;;2.40;;
42030;SDS011;27709;52.036;5.906;2023-08-17T09:25:56;6.22;;;2.88;;
42030;SDS011;27709;52.036;5.906;2023-08-17T09:28:25;8.60;;;2.42;;
42030;SDS011;27709;52.036;5.906;2023-08-17T09:33:26;7.70;;;2.33;;
42030;SDS011;27709;52.036;5.906;2023-08-17T09:35:55;6.45;;;2.50;;
42030;SDS011;27709;52.036;5.906;2023-08-17T09:38:21;6.60;;;2.90;;
42030;SDS011;27709;52.036;5.906;2023-08-17T09:40:50;8.82;;;3.67;;
42030;SDS011;27709;52.036;5.906;2023-08-17T09:43:17;7.88;;;3.20;;
42030;SDS011;27709;52.036;5.906;2023-08-17T09:45:44;6.88;;;3.13;;
42030;SDS011;27709;52.036;5.906;2023-08-17T09:48:15;7.10;;;2.95;;
42030;SDS011;27709;52.036;5.906;2023-08-17T09:50:42;7.70;;;3.30;;
42030;SDS011;27709;52.036;5.906;2023-08-17T09:53:12;6.18;;;2.92;;
42030;SDS011;27709;52.036;5.906;2023-08-17T09:55:39;7.93;;;2.90;;
42030;SDS011;27709;52.036;5.906;2023-08-17T09:58:07;6.22;;;2.80;;
42030;SDS011;27709;52.036;5.906;2023-08-17T10:00:33;7.57;;;3.47;;
42030;SDS011;27709;52.036;5.906;2023-08-17T10:03:00;8.57;;;3.20;;
42030;SDS011;27709;52.036;5.906;2023-08-17T10:05:28;8.05;;;2.88;;
42030;SDS011;27709;52.036;5.906;2023-08-17T10:07:57;8.63;;;3.40;;
42030;SDS011;27709;52.036;5.906;2023-08-17T10:10:25;6.85;;;3.40;;
42030;SDS011;27709;52.036;5.906;2023-08-17T10:15:34;6.85;;;3.10;;
42030;SDS011;27709;52.036;5.906;2023-08-17T10:18:12;7.03;;;2.83;;
42030;SDS011;27709;52.036;5.906;2023-08-17T10:20:54;6.85;;;3.33;;
42030;SDS011;27709;52.036;5.906;2023-08-17T10:23:26;6.65;;;2.75;;
42030;SDS011;27709;52.036;5.906;2023-08-17T10:25:53;7.20;;;3.00;;
42030;SDS011;27709;52.036;5.906;2023-08-17T10:28:19;8.93;;;3.28;;
42030;SDS011;27709;52.036;5.906;2023-08-17T10:30:47;6.10;;;3.22;;
42030;SDS011;27709;52.036;5.906;2023-08-17T10:33:16;7.57;;;2.90;;
42030;SDS011;27709;52.036;5.906;2023-08-17T10:35:42;7.28;;;3.25;;
42030;SDS011;27709;52.036;5.906;2023-08-17T10:38:08;6.90;;;2.97;;
42030;SDS011;27709;52.036;5.906;2023-08-17T10:40:37;5.97;;;2.78;;
42030;SDS011;27709;52.036;5.906;2023-08-17T10:43:06;7.90;;;2.90;;
42030;SDS011;27709;52.036;5.906;2023-08-17T10:45:33;7.88;;;3.20;;
42030;SDS011;27709;52.036;5.906;2023-08-17T10:50:33;6.20;;;2.87;;
42030;SDS011;27709;52.036;5.906;2023-08-17T10:53:04;5.88;;;3.08;;
42030;SDS011;27709;52.036;5.906;2023-08-17T10:55:37;7.15;;;3.10;;
42030;SDS011;27709;52.036;5.906;2023-08-17T10:58:05;6.15;;;3.00;;
42030;SDS011;27709;52.036;5.906;2023-08-17T11:00:37;6.30;;;3.00;;
42030;SDS011;27709;52.036;5.906;2023-08-17T11:03:07;6.70;;;3.10;;
42030;SDS011;27709;52.036;5.906;2023-08-17T11:08:33;6.05;;;2.63;;
42030;SDS011;27709;52.036;5.906;2023-08-17T11:11:15;6.07;;;2.70;;
42030;SDS011;27709;52.036;5.906;2023-08-17T11:13:45;4.90;;;2.40;;
42030;SDS011;27709;52.036;5.906;2023-08-17T11:16:12;6.07;;;3.15;;
42030;SDS011;27709;52.036;5.906;2023-08-17T11:18:39;6.40;;;2.63;;
42030;SDS011;27709;52.036;5.906;2023-08-17T11:21:06;7.47;;;2.78;;
42030;SDS011;27709;52.036;5.906;2023-08-17T11:23:33;5.95;;;3.40;;
42030;SDS011;27709;52.036;5.906;2023-08-17T11:26:01;6.45;;;3.00;;
42030;SDS011;27709;52.036;5.906;2023-08-17T11:28:28;7.00;;;2.85;;
42030;SDS011;27709;52.036;5.906;2023-08-17T11:31:01;6.00;;;3.55;;
42030;SDS011;27709;52.036;5.906;2023-08-17T11:33:28;4.43;;;2.90;;
42030;SDS011;27709;52.036;5.906;2023-08-17T11:35:55;8.23;;;3.45;;
42030;SDS011;27709;52.036;5.906;2023-08-17T11:38:22;5.15;;;3.15;;
42030;SDS011;27709;52.036;5.906;2023-08-17T11:40:48;7.47;;;3.25;;
42030;SDS011;27709;52.036;5.906;2023-08-17T11:43:17;5.95;;;3.25;;
42030;SDS011;27709;52.036;5.906;2023-08-17T11:45:43;5.47;;;2.95;;
42030;SDS011;27709;52.036;5.906;2023-08-17T11:48:09;7.78;;;3.70;;
42030;SDS011;27709;52.036;5.906;2023-08-17T11:50:35;7.53;;;2.63;;
42030;SDS011;27709;52.036;5.906;2023-08-17T11:53:00;4.25;;;2.60;;
42030;SDS011;27709;52.036;5.906;2023-08-17T11:55:27;4.32;;;2.70;;
42030;SDS011;27709;52.036;5.906;2023-08-17T11:57:53;5.30;;;3.20;;
42030;SDS011;27709;52.036;5.906;2023-08-17T12:00:19;5.60;;;3.05;;
42030;SDS011;27709;52.036;5.906;2023-08-17T12:02:50;5.72;;;2.70;;
42030;SDS011;27709;52.036;5.906;2023-08-17T12:05:22;6.53;;;3.28;;
42030;SDS011;27709;52.036;5.906;2023-08-17T12:07:54;8.05;;;3.38;;
42030;SDS011;27709;52.036;5.906;2023-08-17T12:10:21;4.78;;;2.50;;
42030;SDS011;27709;52.036;5.906;2023-08-17T12:12:49;4.38;;;2.75;;
42030;SDS011;27709;52.036;5.906;2023-08-17T12:15:18;6.82;;;3.17;;
42030;SDS011;27709;52.036;5.906;2023-08-17T12:17:47;6.68;;;3.40;;
42030;SDS011;27709;52.036;5.906;2023-08-17T12:20:17;5.30;;;2.80;;
42030;SDS011;27709;52.036;5.906;2023-08-17T12:22:44;5.78;;;2.67;;
42030;SDS011;27709;52.036;5.906;2023-08-17T12:25:10;4.82;;;2.70;;
42030;SDS011;27709;52.036;5.906;2023-08-17T12:27:36;5.22;;;2.55;;
42030;SDS011;27709;52.036;5.906;2023-08-17T12:30:02;7.03;;;2.60;;
42030;SDS011;27709;52.036;5.906;2023-08-17T12:32:28;5.78;;;2.58;;
42030;SDS011;27709;52.036;5.906;2023-08-17T12:34:53;5.07;;;2.45;;
42030;SDS011;27709;52.036;5.906;2023-08-17T12:37:19;6.93;;;2.78;;
42030;SDS011;27709;52.036;5.906;2023-08-17T12:39:48;6.13;;;2.70;;
42030;SDS011;27709;52.036;5.906;2023-08-17T12:42:15;6.32;;;3.35;;
42030;SDS011;27709;52.036;5.906;2023-08-17T12:44:40;6.25;;;3.35;;
42030;SDS011;27709;52.036;5.906;2023-08-17T12:47:06;4.70;;;3.10;;
42030;SDS011;27709;52.036;5.906;2023-08-17T12:49:32;7.03;;;2.95;;
42030;SDS011;27709;52.036;5.906;2023-08-17T12:51:57;6.97;;;3.50;;
42030;SDS011;27709;52.036;5.906;2023-08-17T12:54:23;7.43;;;3.35;;
42030;SDS011;27709;52.036;5.906;2023-08-17T12:56:48;7.38;;;3.38;;
42030;SDS011;27709;52.036;5.906;2023-08-17T12:59:14;7.38;;;3.08;;
42030;SDS011;27709;52.036;5.906;2023-08-17T13:01:39;7.32;;;3.10;;
42030;SDS011;27709;52.036;5.906;2023-08-17T13:04:05;6.00;;;3.42;;
42030;SDS011;27709;52.036;5.906;2023-08-17T13:06:31;7.38;;;3.38;;
42030;SDS011;27709;52.036;5.906;2023-08-17T13:08:56;9.10;;;3.50;;
42030;SDS011;27709;52.036;5.906;2023-08-17T13:11:22;6.88;;;3.13;;
42030;SDS011;27709;52.036;5.906;2023-08-17T13:13:48;6.45;;;3.17;;
42030;SDS011;27709;52.036;5.906;2023-08-17T13:16:13;6.07;;;3.13;;
42030;SDS011;27709;52.036;5.906;2023-08-17T13:18:39;6.47;;;3.10;;
42030;SDS011;27709;52.036;5.906;2023-08-17T13:21:04;38.30;;;8.40;;
42030;SDS011;27709;52.036;5.906;2023-08-17T13:23:30;12.32;;;5.25;;
42030;SDS011;27709;52.036;5.906;2023-08-17T13:25:55;9.23;;;3.50;;
42030;SDS011;27709;52.036;5.906;2023-08-17T13:28:21;9.95;;;3.85;;
42030;SDS011;27709;52.036;5.906;2023-08-17T13:30:47;9.60;;;4.72;;
42030;SDS011;27709;52.036;5.906;2023-08-17T13:33:12;7.38;;;3.72;;
42030;SDS011;27709;52.036;5.906;2023-08-17T13:35:38;7.53;;;4.22;;
42030;SDS011;27709;52.036;5.906;2023-08-17T13:38:04;6.07;;;3.70;;
42030;SDS011;27709;52.036;5.906;2023-08-17T13:40:30;6.45;;;3.95;;
42030;SDS011;27709;52.036;5.906;2023-08-17T13:42:56;6.55;;;3.50;;
42030;SDS011;27709;52.036;5.906;2023-08-17T13:45:23;8.10;;;4.38;;
42030;SDS011;27709;52.036;5.906;2023-08-17T13:47:49;8.93;;;4.03;;
42030;SDS011;27709;52.036;5.906;2023-08-17T13:50:14;5.43;;;3.38;;
42030;SDS011;27709;52.036;5.906;2023-08-17T13:52:40;6.38;;;3.63;;
42030;SDS011;27709;52.036;5.906;2023-08-17T13:55:06;6.82;;;3.78;;
42030;SDS011;27709;52.036;5.906;2023-08-17T13:57:31;5.90;;;3.45;;
42030;SDS011;27709;52.036;5.906;2023-08-17T13:59:57;6.28;;;3.65;;
42030;SDS011;27709;52.036;5.906;2023-08-17T14:02:22;6.22;;;3.28;;
42030;SDS011;27709;52.036;5.906;2023-08-17T14:04:48;5.35;;;3.47;;
42030;SDS011;27709;52.036;5.906;2023-08-17T14:07:13;5.45;;;3.55;;
42030;SDS011;27709;52.036;5.906;2023-08-17T14:09:39;5.60;;;3.72;;
42030;SDS011;27709;52.036;5.906;2023-08-17T14:12:05;8.00;;;4.00;;
42030;SDS011;27709;52.036;5.906;2023-08-17T14:14:30;6.10;;;3.50;;
42030;SDS011;27709;52.036;5.906;2023-08-17T14:16:56;5.85;;;3.35;;
42030;SDS011;27709;52.036;5.906;2023-08-17T14:19:22;8.18;;;3.95;;
42030;SDS011;27709;52.036;5.906;2023-08-17T14:21:48;4.80;;;3.22;;
42030;SDS011;27709;52.036;5.906;2023-08-17T14:24:13;6.43;;;4.13;;
42030;SDS011;27709;52.036;5.906;2023-08-17T14:26:39;5.28;;;3.90;;
42030;SDS011;27709;52.036;5.906;2023-08-17T14:29:05;6.63;;;4.57;;
42030;SDS011;27709;52.036;5.906;2023-08-17T14:31:30;7.18;;;4.82;;
42030;SDS011;27709;52.036;5.906;2023-08-17T14:33:56;6.25;;;4.63;;
42030;SDS011;27709;52.036;5.906;2023-08-17T14:36:21;7.03;;;4.13;;
42030;SDS011;27709;52.036;5.906;2023-08-17T14:38:47;7.35;;;4.78;;
42030;SDS011;27709;52.036;5.906;2023-08-17T14:41:13;6.68;;;4.65;;
42030;SDS011;27709;52.036;5.906;2023-08-17T14:43:38;7.50;;;5.07;;
42030;SDS011;27709;52.036;5.906;2023-08-17T14:46:04;6.45;;;5.03;;
42030;SDS011;27709;52.036;5.906;2023-08-17T14:48:30;8.25;;;4.78;;
42030;SDS011;27709;52.036;5.906;2023-08-17T14:50:55;7.43;;;4.63;;
42030;SDS011;27709;52.036;5.906;2023-08-17T14:53:21;9.73;;;5.47;;
42030;SDS011;27709;52.036;5.906;2023-08-17T14:55:46;8.38;;;6.22;;
42030;SDS011;27709;52.036;5.906;2023-08-17T14:58:12;7.00;;;5.10;;